Strawberry Valley, California
Current Conditions -  °F | °C
As of 6:40 PM on Wednesday 22 Oct 2014 (Local Time) from KGOO Reporting Station
Clear Clear  
Wind Chill: 59°   Ceiling: Unl
Heat Index: 59°   Visibility: 10mi
Dew Point: 36°   Wind: 0mph
Humidity: 42%   Direction: NA
Pressure: 30.08"   Gusts: NA
Location:  39.56°N, 121.11°W
Report Text: KGOO 230140Z AUTO 00000KT 10SM CLR 15/02 A3008 RMK AO1
Loading
Personal Weather Stations






























Interactive Weather Map New forecast layout! Learn more

10-Day Weather Forecast

Advertisements
Track Severe Weather on mobile